Time;durP1;ratioP1;P1;durP2;ratioP2;P2;SDS_P1;SDS_P2;PMS_P1;PMS_P2;Temp;Humidity;BMP_temperature;BMP_pressure;BME280_temperature;BME280_humidity;BME280_pressure;Samples;Min_cycle;Max_cycle;Signal;HPM_P1;HPM_P2
2021/12/29 00:00:28;;;;;;;0.20;0.20;;;;;;;5.60;100.00;94919.09;5045171;28;20041;-70
2021/12/29 00:02:56;;;;;;;0.10;0.10;;;;;;;5.57;100.00;94919.59;5045639;28;20045;-70
2021/12/29 00:05:22;;;;;;;0.10;0.10;;;;;;;5.57;100.00;94917.75;5047272;28;20036;-71
2021/12/29 00:07:48;;;;;;;0.10;0.10;;;;;;;5.56;100.00;94923.31;5046100;28;20090;-72
2021/12/29 00:10:15;;;;;;;0.10;0.10;;;;;;;5.53;100.00;94945.06;5046548;28;20064;-70
2021/12/29 00:12:45;;;;;;;0.10;0.10;;;;;;;5.53;100.00;94926.50;5046446;28;20044;-70
2021/12/29 00:15:14;;;;;;;0.20;0.20;;;;;;;5.50;100.00;94938.38;5045883;28;20040;-70
2021/12/29 00:17:42;;;;;;;0.10;0.10;;;;;;;5.52;100.00;94930.16;5045423;28;20061;-73
2021/12/29 00:20:09;;;;;;;0.15;0.15;;;;;;;5.54;100.00;94941.34;5046299;28;20459;-69
2021/12/29 00:22:35;;;;;;;0.10;0.10;;;;;;;5.53;100.00;94971.59;5044966;28;20037;-70
2021/12/29 00:25:01;;;;;;;0.10;0.10;;;;;;;5.52;100.00;94938.13;5045758;28;20064;-72
2021/12/29 00:27:27;;;;;;;0.10;0.10;;;;;;;5.54;100.00;94955.41;5046033;28;20090;-69
2021/12/29 00:29:52;;;;;;;0.10;0.10;;;;;;;5.55;100.00;94953.56;5046364;28;20041;-72
2021/12/29 00:32:54;;;;;;;0.10;0.10;;;;;;;5.52;100.00;94957.50;4971663;28;20105;-70
2021/12/29 00:35:41;;;;;;;0.17;0.17;;;;;;;5.53;100.00;94971.59;5040101;28;20040;-70
2021/12/29 00:38:25;;;;;;;0.10;0.10;;;;;;;5.51;100.00;94969.16;5044158;28;20061;-70
2021/12/29 00:41:09;;;;;;;0.10;0.10;;;;;;;5.48;100.00;94958.28;5045720;28;20076;-70
2021/12/29 00:43:55;;;;;;;0.10;0.10;;;;;;;5.51;100.00;94961.22;5044798;28;20059;-70
2021/12/29 00:46:39;;;;;;;0.30;0.30;;;;;;;5.51;100.00;94969.16;5046415;28;20183;-71
2021/12/29 00:49:05;;;;;;;0.17;0.17;;;;;;;5.51;100.00;94968.38;5046691;28;20417;-70
2021/12/29 00:51:31;;;;;;;0.10;0.10;;;;;;;5.53;100.00;94979.56;5045510;28;20021;-70
2021/12/29 00:53:57;;;;;;;0.20;0.20;;;;;;;5.51;100.00;94977.13;5028206;28;20048;-72
2021/12/29 00:56:23;;;;;;;0.20;0.20;;;;;;;5.51;100.00;94981.63;5045237;28;20052;-71
2021/12/29 00:58:49;;;;;;;0.10;0.10;;;;;;;5.48;100.00;94988.25;5046346;28;20372;-70
2021/12/29 01:01:15;;;;;;;0.10;0.10;;;;;;;5.52;100.00;95004.47;5042940;28;20048;-70
2021/12/29 01:03:41;;;;;;;0.13;0.13;;;;;;;5.51;100.00;95026.75;5045457;28;20414;-72
2021/12/29 01:06:06;;;;;;;0.10;0.10;;;;;;;5.51;100.00;95016.94;5045530;28;20033;-69
2021/12/29 01:08:32;;;;;;;0.10;0.10;;;;;;;5.46;100.00;95013.44;5044174;28;20523;-70
2021/12/29 01:10:58;;;;;;;0.13;0.13;;;;;;;5.48;100.00;95033.38;5046744;28;20037;-70
2021/12/29 01:13:30;;;;;;;0.20;0.20;;;;;;;5.48;100.00;95041.31;5046110;28;20140;-70
2021/12/29 01:16:09;;;;;;;0.10;0.10;;;;;;;5.46;100.00;95050.59;5045296;28;20419;-70
2021/12/29 01:18:37;;;;;;;0.10;0.10;;;;;;;5.45;100.00;95055.09;5044114;28;20035;-69
2021/12/29 01:21:04;;;;;;;0.10;0.10;;;;;;;5.47;100.00;95060.16;5043314;28;20044;-71
2021/12/29 01:23:30;;;;;;;0.10;0.10;;;;;;;5.46;100.00;95077.94;5043974;28;20365;-70
2021/12/29 01:25:55;;;;;;;0.10;0.10;;;;;;;5.46;100.00;95069.16;5044048;28;20063;-70
2021/12/29 01:28:21;;;;;;;0.10;0.10;;;;;;;5.45;100.00;95092.25;5043511;28;20072;-70
2021/12/29 01:30:46;;;;;;;0.20;0.20;;;;;;;5.47;100.00;95084.03;5043764;28;20493;-70
2021/12/29 01:33:12;;;;;;;0.10;0.10;;;;;;;5.45;100.00;95094.09;5043444;28;20071;-70
2021/12/29 01:35:40;;;;;;;0.10;0.10;;;;;;;5.43;100.00;95096.19;5044136;28;20548;-70
2021/12/29 01:38:07;;;;;;;0.30;0.30;;;;;;;5.43;100.00;95098.81;5041365;28;20479;-71
2021/12/29 01:40:35;;;;;;;0.10;0.10;;;;;;;5.43;100.00;95112.91;5044036;28;20041;-70
2021/12/29 01:43:03;;;;;;;0.10;0.10;;;;;;;5.42;100.00;95113.16;5043345;28;20114;-70
2021/12/29 01:45:28;;;;;;;0.20;0.20;;;;;;;5.42;100.00;95121.09;5043368;28;20384;-69
2021/12/29 01:47:54;;;;;;;0.10;0.10;;;;;;;5.42;100.00;95113.16;5044203;28;20087;-69
2021/12/29 01:50:21;;;;;;;0.10;0.10;;;;;;;5.42;100.00;95143.13;5025564;28;20041;-70
2021/12/29 01:52:54;;;;;;;0.10;0.10;;;;;;;5.42;100.00;95144.97;5042816;28;20037;-70
2021/12/29 01:55:25;;;;;;;0.10;0.10;;;;;;;5.42;100.00;95123.75;5043707;28;20482;-72
2021/12/29 01:57:51;;;;;;;0.20;0.20;;;;;;;5.44;100.00;95135.72;5044289;28;20041;-70
2021/12/29 02:00:19;;;;;;;0.10;0.10;;;;;;;5.41;100.00;95138.88;5042674;28;20418;-70
2021/12/29 02:02:46;;;;;;;0.20;0.20;;;;;;;5.43;100.00;95142.06;5043798;28;20150;-70
2021/12/29 02:05:12;;;;;;;0.20;0.20;;;;;;;5.43;100.00;95150.03;5043472;28;20135;-69
2021/12/29 02:07:37;;;;;;;0.10;0.10;;;;;;;5.44;100.00;95154.28;5042654;28;20040;-69
2021/12/29 02:10:05;;;;;;;0.10;0.10;;;;;;;5.42;100.00;95164.34;5042373;28;20056;-69
2021/12/29 02:12:30;;;;;;;0.10;0.10;;;;;;;5.41;100.00;95164.59;5045019;28;20037;-72
2021/12/29 02:14:56;;;;;;;0.25;0.25;;;;;;;5.39;100.00;95179.97;5043957;28;20376;-73
2021/12/29 02:17:21;;;;;;;0.10;0.10;;;;;;;5.39;100.00;95164.88;5043626;28;20048;-69
2021/12/29 02:19:48;;;;;;;0.10;0.10;;;;;;;5.38;100.00;95159.81;5043768;28;20037;-71
2021/12/29 02:22:31;;;;;;;0.20;0.20;;;;;;;5.40;100.00;95168.31;5043840;28;20574;-72
2021/12/29 02:25:18;;;;;;;0.10;0.10;;;;;;;5.41;100.00;95186.63;5043169;28;20025;-70
2021/12/29 02:27:51;;;;;;;0.20;0.20;;;;;;;5.42;100.00;95177.63;5042437;28;20422;-72
2021/12/29 02:30:23;;;;;;;0.10;0.10;;;;;;;5.41;100.00;95176.03;5044271;28;20079;-70
2021/12/29 02:32:53;;;;;;;0.10;0.10;;;;;;;5.41;100.00;95188.50;5043636;28;20037;-70
2021/12/29 02:35:19;;;;;;;0.17;0.17;;;;;;;5.42;100.00;95190.09;5045075;28;20076;-70
2021/12/29 02:37:44;;;;;;;0.10;0.10;;;;;;;5.40;100.00;95187.69;5042969;28;20059;-70
2021/12/29 02:40:11;;;;;;;0.10;0.10;;;;;;;5.40;100.00;95189.53;5043960;28;20337;-69
2021/12/29 02:42:41;;;;;;;0.20;0.20;;;;;;;5.40;100.00;95195.66;5044726;28;20315;-70
2021/12/29 02:45:13;;;;;;;0.10;0.10;;;;;;;5.39;100.00;95193.25;5043970;28;20110;-71
2021/12/29 02:47:39;;;;;;;0.13;0.13;;;;;;;5.40;100.00;95200.16;5044818;28;20365;-70
2021/12/29 02:50:05;;;;;;;0.10;0.10;;;;;;;5.40;100.00;95224.03;5025963;28;20075;-70
2021/12/29 02:52:31;;;;;;;0.10;0.10;;;;;;;5.40;100.00;95197.50;5042953;28;20433;-70
2021/12/29 02:54:56;;;;;;;0.10;0.10;;;;;;;5.42;100.00;95208.66;5043290;28;20052;-70
2021/12/29 02:57:22;;;;;;;0.10;0.10;;;;;;;5.37;100.00;95188.19;5044432;28;20594;-70
2021/12/29 02:59:47;;;;;;;0.10;0.10;;;;;;;5.40;100.00;95194.84;5044294;28;20134;-70
2021/12/29 03:02:13;;;;;;;0.10;0.10;;;;;;;5.40;100.00;95193.00;5024211;28;20060;-70
2021/12/29 03:04:38;;;;;;;0.13;0.13;;;;;;;5.39;100.00;95199.34;5044592;28;20033;-70
2021/12/29 03:07:04;;;;;;;0.10;0.10;;;;;;;5.40;100.00;95226.69;5042460;28;20045;-72
2021/12/29 03:09:30;;;;;;;0.10;0.10;;;;;;;5.41;100.00;95238.91;5044009;28;20033;-70
2021/12/29 03:11:56;;;;;;;0.15;0.15;;;;;;;5.36;100.00;95238.81;5043295;28;20047;-70
2021/12/29 03:14:22;;;;;;;0.10;0.10;;;;;;;5.40;100.00;95258.50;5043695;28;20040;-70
2021/12/29 03:16:48;;;;;;;0.10;0.10;;;;;;;5.40;100.00;95239.94;5043219;28;20424;-69
2021/12/29 03:19:14;;;;;;;0.10;0.10;;;;;;;5.41;100.00;95249.50;5042633;28;20068;-70
2021/12/29 03:21:40;;;;;;;0.20;0.20;;;;;;;5.38;100.00;95250.00;5043572;28;20041;-71
2021/12/29 03:24:07;;;;;;;0.10;0.10;;;;;;;5.39;100.00;95268.31;5046066;28;20484;-69
2021/12/29 03:26:33;;;;;;;0.10;0.10;;;;;;;5.39;100.00;95272.84;5046979;28;20111;-70
2021/12/29 03:28:59;;;;;;;0.10;0.10;;;;;;;5.36;100.00;95274.09;5047150;28;20060;-71
2021/12/29 03:31:27;;;;;;;0.10;0.10;;;;;;;5.37;100.00;95262.47;5047780;28;20455;-70
2021/12/29 03:33:53;;;;;;;0.10;0.10;;;;;;;5.38;100.00;95261.41;5046819;28;20124;-73
2021/12/29 03:36:18;;;;;;;0.20;0.20;;;;;;;5.38;100.00;95266.72;5046924;28;20032;-70
2021/12/29 03:38:45;;;;;;;0.75;0.75;;;;;;;5.36;100.00;95263.50;5045799;28;20037;-70
2021/12/29 03:41:13;;;;;;;0.20;0.20;;;;;;;5.36;100.00;95278.59;5046495;28;20451;-71
2021/12/29 03:43:40;;;;;;;0.10;0.10;;;;;;;5.36;100.00;95305.13;5045819;28;20041;-70
2021/12/29 03:46:08;;;;;;;0.10;0.10;;;;;;;5.35;100.00;95269.03;5046993;28;20448;-72
2021/12/29 03:48:37;;;;;;;0.10;0.10;;;;;;;5.37;100.00;95288.16;5045390;28;20063;-71
2021/12/29 03:51:03;;;;;;;0.10;0.10;;;;;;;5.34;100.00;95278.06;5047059;28;20434;-71
2021/12/29 03:53:31;;;;;;;0.10;0.10;;;;;;;5.31;100.00;95288.13;5045199;28;20484;-71
2021/12/29 03:55:57;;;;;;;0.20;0.20;;;;;;;5.32;100.00;95276.44;5046413;28;20041;-71
2021/12/29 03:58:25;;;;;;;0.20;0.20;;;;;;;5.34;100.00;95289.47;5029793;28;20037;-70
2021/12/29 04:00:54;;;;;;;0.20;0.20;;;;;;;5.32;100.00;95291.56;5046262;28;20049;-71
2021/12/29 04:03:20;;;;;;;0.13;0.13;;;;;;;5.32;100.00;95304.84;5046285;28;20674;-70
2021/12/29 04:05:47;;;;;;;0.10;0.10;;;;;;;5.29;100.00;95311.44;5049172;28;20036;-70
2021/12/29 04:08:12;;;;;;;0.10;0.10;;;;;;;5.31;100.00;95319.94;5025105;28;20045;-70
2021/12/29 04:10:38;;;;;;;0.10;0.10;;;;;;;5.29;100.00;95316.75;5048901;28;20107;-70
2021/12/29 04:13:05;;;;;;;0.10;0.10;;;;;;;5.28;100.00;95325.72;5046714;28;20029;-72
2021/12/29 04:15:31;;;;;;;0.10;0.10;;;;;;;5.28;100.00;95325.72;5048133;28;20831;-72
2021/12/29 04:17:58;;;;;;;0.10;0.10;;;;;;;5.31;100.00;95327.09;5045941;28;20056;-70
2021/12/29 04:23:15;;;;;;;0.13;0.13;;;;;;;5.29;100.00;95345.09;5044479;28;20255;-70
2021/12/29 04:25:41;;;;;;;0.25;0.25;;;;;;;5.26;100.00;95341.09;5047563;28;20029;-70
2021/12/29 04:28:13;;;;;;;0.10;0.10;;;;;;;5.23;100.00;95338.13;5044193;28;20384;-70
2021/12/29 04:30:39;;;;;;;0.10;0.10;;;;;;;5.24;100.00;95345.84;5046140;28;20099;-69
2021/12/29 04:33:05;;;;;;;0.43;0.43;;;;;;;5.26;100.00;95354.34;5045003;28;20033;-69
2021/12/29 04:35:33;;;;;;;0.13;0.13;;;;;;;5.24;100.00;95359.09;5045955;28;20492;-70
2021/12/29 04:37:59;;;;;;;3.13;2.92;;;;;;;5.25;100.00;95373.97;5044029;28;20029;-70
2021/12/29 04:40:24;;;;;;;0.10;0.10;;;;;;;5.25;100.00;95370.50;5045571;28;20033;-70
2021/12/29 04:42:51;;;;;;;0.10;0.10;;;;;;;5.26;100.00;95395.97;5046303;28;20426;-70
2021/12/29 04:45:17;;;;;;;0.20;0.20;;;;;;;5.24;100.00;95396.22;5045835;28;20124;-70
2021/12/29 04:47:45;;;;;;;0.25;0.25;;;;;;;5.23;100.00;95391.97;5045681;28;20044;-72
2021/12/29 04:50:24;;;;;;;0.10;0.10;;;;;;;5.22;100.00;95403.63;5044536;28;20116;-70
2021/12/29 04:52:59;;;;;;;0.10;0.10;;;;;;;5.23;100.00;95421.16;5043822;28;20041;-70
2021/12/29 04:55:26;;;;;;;0.10;0.10;;;;;;;5.20;100.00;95405.69;5046277;28;20372;-69
2021/12/29 04:57:51;;;;;;;0.10;0.10;;;;;;;5.19;100.00;95417.34;5045907;28;20454;-70
2021/12/29 05:00:21;;;;;;;0.20;0.20;;;;;;;5.20;100.00;95402.25;5044964;28;20037;-70
2021/12/29 05:02:47;;;;;;;0.20;0.20;;;;;;;5.18;100.00;95415.75;5046058;28;20095;-70
2021/12/29 05:05:53;;;;;;;0.25;0.25;;;;;;;5.17;100.00;95408.03;5045064;28;20499;-70
2021/12/29 05:08:25;;;;;;;0.10;0.10;;;;;;;5.16;100.00;95409.88;5038348;28;20061;-73
2021/12/29 05:10:55;;;;;;;0.10;0.10;;;;;;;5.15;100.00;95426.84;5045067;28;20075;-70
2021/12/29 05:13:21;;;;;;;0.20;0.20;;;;;;;5.15;100.00;95434.00;5046074;28;20402;-70
2021/12/29 05:15:47;;;;;;;0.10;0.10;;;;;;;5.15;100.00;95420.75;5044637;28;20283;-71
2021/12/29 05:18:12;;;;;;;0.30;0.30;;;;;;;5.13;100.00;95420.16;5045068;28;20044;-69
2021/12/29 05:20:38;;;;;;;0.20;0.20;;;;;;;5.10;100.00;95434.69;5045883;28;20750;-70
2021/12/29 05:23:04;;;;;;;0.10;0.10;;;;;;;5.11;100.00;95436.31;5043804;28;20028;-70
2021/12/29 05:25:31;;;;;;;0.10;0.10;;;;;;;5.12;100.00;95429.16;5046159;28;20452;-69
2021/12/29 05:27:56;;;;;;;0.10;0.10;;;;;;;5.11;100.00;95438.97;5044329;28;20037;-70
2021/12/29 05:30:23;;;;;;;0.10;0.10;;;;;;;5.10;100.00;95449.81;5045422;28;20068;-70
2021/12/29 05:32:49;;;;;;;0.10;0.10;;;;;;;5.11;100.00;95476.09;5043518;28;20037;-71
2021/12/29 05:35:15;;;;;;;0.10;0.10;;;;;;;5.08;100.00;95452.72;5044724;28;20037;-69
2021/12/29 05:37:41;;;;;;;0.10;0.10;;;;;;;5.08;100.00;95462.50;5043660;28;20032;-70
2021/12/29 05:40:08;;;;;;;0.20;0.20;;;;;;;5.10;100.00;95466.53;5043397;28;20032;-69
2021/12/29 05:42:34;;;;;;;0.10;0.10;;;;;;;5.09;100.00;95470.22;5045147;28;20518;-70
2021/12/29 05:45:09;;;;;;;0.10;0.10;;;;;;;5.10;100.00;95473.69;5043068;28;20631;-70
2021/12/29 05:47:34;;;;;;;0.15;0.15;;;;;;;5.09;100.00;95490.63;5044105;28;20033;-71
2021/12/29 05:50:02;;;;;;;0.10;0.10;;;;;;;5.04;100.00;95500.09;5043722;28;20093;-71
2021/12/29 05:52:28;;;;;;;0.10;0.10;;;;;;;5.02;100.00;95486.28;5043270;28;20412;-70
2021/12/29 05:54:54;;;;;;;0.10;0.10;;;;;;;5.01;100.00;95478.56;5045070;28;20052;-70
2021/12/29 05:57:20;;;;;;;0.20;0.20;;;;;;;4.99;100.00;95475.34;5044143;28;20344;-70
2021/12/29 05:59:45;;;;;;;0.10;0.10;;;;;;;4.97;100.00;95482.72;5044464;28;20039;-70
2021/12/29 06:02:11;;;;;;;0.10;0.10;;;;;;;5.02;100.00;95501.38;5043172;28;20041;-73
2021/12/29 06:04:36;;;;;;;0.20;0.20;;;;;;;5.04;100.00;95499.28;5045086;28;20041;-71
2021/12/29 06:07:02;;;;;;;0.20;0.20;;;;;;;5.01;100.00;95505.88;5024614;28;20124;-72
2021/12/29 06:09:27;;;;;;;0.10;0.10;;;;;;;5.03;100.00;95505.63;5044112;28;20045;-70
2021/12/29 06:11:53;;;;;;;0.20;0.20;;;;;;;5.05;100.00;95511.50;5044974;28;20048;-71
2021/12/29 06:14:19;;;;;;;0.10;0.10;;;;;;;5.03;100.00;95503.78;5044588;28;20055;-71
2021/12/29 06:16:45;;;;;;;0.10;0.10;;;;;;;5.05;100.00;95506.19;5043012;28;20029;-70
2021/12/29 06:19:10;;;;;;;2.08;1.00;;;;;;;5.03;100.00;95508.28;5043171;28;20099;-70
2021/12/29 06:21:36;;;;;;;0.10;0.10;;;;;;;5.03;100.00;95510.94;5044700;28;20037;-70
2021/12/29 06:24:02;;;;;;;0.20;0.20;;;;;;;5.01;100.00;95515.69;5042066;28;20043;-72
2021/12/29 06:26:27;;;;;;;0.10;0.10;;;;;;;5.02;100.00;95527.91;5044328;28;20040;-70
2021/12/29 06:28:53;;;;;;;0.20;0.20;;;;;;;5.02;100.00;95519.94;5044000;28;20087;-70
2021/12/29 06:31:18;;;;;;;0.10;0.10;;;;;;;4.96;100.00;95518.22;5044091;28;20063;-70
2021/12/29 06:33:46;;;;;;;0.10;0.10;;;;;;;4.99;100.00;95536.34;5045075;28;20037;-70
2021/12/29 06:36:11;;;;;;;0.10;0.10;;;;;;;5.03;100.00;95540.09;5042960;28;20037;-72
2021/12/29 06:38:37;;;;;;;0.10;0.10;;;;;;;4.98;100.00;95546.13;5042270;28;20021;-70
2021/12/29 06:41:02;;;;;;;0.10;0.10;;;;;;;5.04;100.00;95539.06;5042437;28;20468;-70
2021/12/29 06:43:28;;;;;;;0.22;0.22;;;;;;;5.04;100.00;95547.03;5043438;28;20040;-71
2021/12/29 06:45:53;;;;;;;0.10;0.10;;;;;;;5.04;100.00;95553.13;5043969;28;20045;-73
2021/12/29 06:48:19;;;;;;;0.20;0.20;;;;;;;5.01;100.00;95539.53;5043358;28;20033;-71
2021/12/29 06:50:47;;;;;;;0.20;0.20;;;;;;;5.00;100.00;95551.19;5045493;28;20043;-71
2021/12/29 06:53:13;;;;;;;0.10;0.10;;;;;;;5.04;100.00;95552.31;5041590;28;20448;-71
2021/12/29 06:55:39;;;;;;;0.10;0.10;;;;;;;5.04;100.00;95555.78;5044204;28;20048;-71
2021/12/29 06:58:06;;;;;;;0.10;0.10;;;;;;;5.07;100.00;95573.09;5048303;28;20085;-71
2021/12/29 07:00:33;;;;;;;0.10;0.10;;;;;;;5.01;100.00;95561.56;5048392;28;20045;-71
2021/12/29 07:02:58;;;;;;;0.10;0.10;;;;;;;5.06;100.00;95574.13;5048032;28;20055;-71
2021/12/29 07:05:24;;;;;;;0.10;0.10;;;;;;;5.03;100.00;95569.28;5048438;28;20044;-72
2021/12/29 07:07:52;;;;;;;0.10;0.10;;;;;;;5.02;100.00;95576.44;5046802;28;20061;-72
2021/12/29 07:10:18;;;;;;;0.10;0.10;;;;;;;5.00;100.00;95577.72;5047433;28;20044;-70
2021/12/29 07:12:43;;;;;;;0.20;0.20;;;;;;;5.01;100.00;95581.97;5049396;28;20033;-71
2021/12/29 07:15:09;;;;;;;0.13;0.13;;;;;;;5.02;100.00;95589.69;5047695;28;20037;-73
2021/12/29 07:17:34;;;;;;;0.10;0.10;;;;;;;5.02;100.00;95591.53;5049595;28;20029;-70
2021/12/29 07:20:00;;;;;;;0.20;0.20;;;;;;;5.04;100.00;95597.41;5049049;28;20159;-72
2021/12/29 07:22:25;;;;;;;0.10;0.10;;;;;;;5.06;100.00;95602.47;5047495;28;20063;-70
2021/12/29 07:24:51;;;;;;;0.10;0.10;;;;;;;5.06;100.00;95598.00;5050222;28;20033;-71
2021/12/29 07:27:16;;;;;;;0.38;0.35;;;;;;;5.06;100.00;95619.22;5049718;28;20063;-72
2021/12/29 07:29:42;;;;;;;0.10;0.10;;;;;;;5.04;100.00;95627.38;5049631;28;20075;-71
2021/12/29 07:32:08;;;;;;;0.10;0.10;;;;;;;5.06;100.00;95619.22;5029302;28;20053;-70
2021/12/29 07:34:35;;;;;;;0.17;0.17;;;;;;;5.07;100.00;95620.81;5046980;28;20569;-70
2021/12/29 07:37:00;;;;;;;0.10;0.10;;;;;;;5.07;100.00;95620.81;5047387;28;20048;-70
2021/12/29 07:39:26;;;;;;;0.10;0.10;;;;;;;5.08;100.00;95633.03;5048372;28;20098;-70
2021/12/29 07:41:52;;;;;;;0.10;0.10;;;;;;;5.11;100.00;95637.06;5048234;28;20113;-70
2021/12/29 07:44:22;;;;;;;0.10;0.10;;;;;;;5.10;100.00;95638.09;5031074;28;20387;-71
2021/12/29 07:46:52;;;;;;;0.10;0.10;;;;;;;5.10;100.00;95641.56;5045831;28;20041;-71
2021/12/29 07:49:18;;;;;;;0.20;0.20;;;;;;;5.09;100.00;95642.59;5047541;28;20036;-71
2021/12/29 07:51:44;;;;;;;0.20;0.20;;;;;;;5.08;100.00;95641.00;5047015;28;20078;-71
2021/12/29 07:54:10;;;;;;;0.10;0.10;;;;;;;5.13;100.00;95651.69;5045023;28;20063;-71
2021/12/29 07:56:36;;;;;;;0.10;0.10;;;;;;;5.14;100.00;95652.53;5045472;28;20040;-70
2021/12/29 07:59:02;;;;;;;0.32;0.32;;;;;;;5.12;100.00;95644.78;5048525;28;20422;-71
2021/12/29 08:01:28;;;;;;;0.35;0.35;;;;;;;5.13;100.00;95662.28;5046479;28;20128;-71
2021/12/29 08:03:53;;;;;;;0.13;0.13;;;;;;;5.10;100.00;95662.78;5047501;28;20190;-72
2021/12/29 08:06:20;;;;;;;0.40;0.40;;;;;;;5.08;100.00;95667.50;5030308;28;20464;-71
2021/12/29 08:08:45;;;;;;;0.20;0.20;;;;;;;5.08;100.00;95656.91;5045949;28;20112;-70
2021/12/29 08:11:12;;;;;;;0.20;0.20;;;;;;;5.10;100.00;95665.41;5045977;28;20489;-70
2021/12/29 08:13:37;;;;;;;0.20;0.20;;;;;;;5.10;100.00;95670.72;5047079;28;20040;-72
2021/12/29 08:16:03;;;;;;;0.20;0.20;;;;;;;5.12;100.00;95673.94;5047030;28;20125;-71
2021/12/29 08:18:29;;;;;;;0.10;0.10;;;;;;;5.09;100.00;95687.69;5047064;28;20364;-71
2021/12/29 08:20:54;;;;;;;0.10;0.10;;;;;;;5.10;100.00;95694.59;5033580;28;20281;-71
2021/12/29 08:23:20;;;;;;;0.10;0.10;;;;;;;5.13;100.00;95691.47;5047148;28;20048;-71
2021/12/29 08:25:46;;;;;;;0.10;0.10;;;;;;;5.13;100.00;95691.47;5048962;28;20044;-71
2021/12/29 08:28:12;;;;;;;0.17;0.17;;;;;;;5.14;100.00;95695.75;5046303;28;20515;-71
2021/12/29 08:30:38;;;;;;;0.10;0.10;;;;;;;5.13;100.00;95691.47;5050536;28;20153;-71
2021/12/29 08:33:04;;;;;;;0.20;0.20;;;;;;;5.12;100.00;95703.13;5047071;28;20119;-71
2021/12/29 08:35:30;;;;;;;0.10;0.10;;;;;;;5.12;100.00;95697.81;5047913;28;20125;-70
2021/12/29 08:37:56;;;;;;;0.15;0.15;;;;;;;5.11;100.00;95693.56;5020531;28;20240;-71
2021/12/29 08:40:22;;;;;;;0.20;0.20;;;;;;;5.15;100.00;95693.91;5046824;28;20037;-71
2021/12/29 08:42:48;;;;;;;0.20;0.20;;;;;;;5.18;100.00;95707.50;5037256;28;20510;-71
2021/12/29 08:45:16;;;;;;;0.15;0.15;;;;;;;5.18;100.00;95717.31;5045433;28;20059;-71
2021/12/29 08:47:43;;;;;;;0.10;0.10;;;;;;;5.16;100.00;95716.75;5045713;28;20380;-71
2021/12/29 08:50:13;;;;;;;0.20;0.20;;;;;;;5.15;100.00;95718.59;5047180;28;20049;-71
2021/12/29 08:52:40;;;;;;;0.10;0.10;;;;;;;5.10;100.00;95721.13;5045825;28;20028;-72
2021/12/29 08:55:07;;;;;;;0.15;0.15;;;;;;;5.13;100.00;95727.78;5045850;28;20107;-71
2021/12/29 08:57:32;;;;;;;0.30;0.30;;;;;;;5.08;100.00;95725.03;5046129;28;20033;-71
2021/12/29 08:59:58;;;;;;;0.40;0.40;;;;;;;5.09;100.00;95716.06;5046522;28;20041;-71
2021/12/29 09:02:25;;;;;;;0.10;0.10;;;;;;;5.12;100.00;95719.03;5046356;28;20049;-71
2021/12/29 09:04:51;;;;;;;0.10;0.10;;;;;;;5.15;100.00;95717.78;5046543;28;20069;-71
2021/12/29 09:07:17;;;;;;;0.10;0.10;;;;;;;5.18;100.00;95727.91;5044103;28;20120;-70
2021/12/29 09:09:42;;;;;;;0.75;0.55;;;;;;;5.16;100.00;95719.38;5045319;28;20037;-71
2021/12/29 09:12:08;;;;;;;0.10;0.10;;;;;;;5.15;100.00;95715.94;5045436;28;20108;-71
2021/12/29 09:14:34;;;;;;;0.10;0.10;;;;;;;5.14;100.00;95716.97;5045250;28;20341;-70
2021/12/29 09:16:59;;;;;;;0.10;0.10;;;;;;;5.12;100.00;95719.03;5046271;28;20036;-71
2021/12/29 09:19:25;;;;;;;0.40;0.40;;;;;;;5.09;100.00;95721.34;5045554;28;20025;-71
2021/12/29 09:21:53;;;;;;;0.10;0.10;;;;;;;5.10;100.00;95720.31;5044284;28;20048;-71
2021/12/29 09:24:19;;;;;;;0.10;0.10;;;;;;;5.12;100.00;95724.34;5045494;28;20029;-71
2021/12/29 09:26:45;;;;;;;0.10;0.10;;;;;;;5.13;100.00;95728.59;5043529;28;20051;-71
2021/12/29 09:29:11;;;;;;;1.85;1.13;;;;;;;5.13;100.00;95731.25;5027069;28;20117;-72
2021/12/29 09:31:36;;;;;;;0.10;0.10;;;;;;;5.14;100.00;95727.59;5046397;28;20084;-71
2021/12/29 09:34:02;;;;;;;0.17;0.17;;;;;;;5.15;100.00;95733.69;5046407;28;20419;-71
2021/12/29 09:36:27;;;;;;;0.10;0.10;;;;;;;5.16;100.00;95730.81;5046441;28;20041;-71
2021/12/29 09:38:53;;;;;;;0.10;0.10;;;;;;;5.20;100.00;95731.94;5044708;28;20060;-72
2021/12/29 09:41:19;;;;;;;0.20;0.20;;;;;;;5.19;100.00;95730.31;5045504;28;20345;-71
2021/12/29 09:43:47;;;;;;;0.10;0.10;;;;;;;5.23;100.00;95736.00;5045895;28;20098;-71
2021/12/29 09:46:13;;;;;;;0.20;0.20;;;;;;;5.28;100.00;95736.88;5046325;28;20045;-71
2021/12/29 09:48:39;;;;;;;0.25;0.25;;;;;;;5.35;100.00;95749.22;5044987;28;20431;-71
2021/12/29 09:51:07;;;;;;;0.10;0.10;;;;;;;5.37;100.00;95742.69;5044829;28;20160;-71
2021/12/29 09:53:34;;;;;;;0.10;0.10;;;;;;;5.42;100.00;95749.91;5042890;28;20040;-72
2021/12/29 09:56:00;;;;;;;0.10;0.10;;;;;;;5.46;100.00;95754.53;5045177;28;20714;-71
2021/12/29 09:58:25;;;;;;;0.10;0.10;;;;;;;5.54;100.00;95743.56;5045831;28;20116;-71
2021/12/29 10:00:57;;;;;;;0.10;0.10;;;;;;;5.65;100.00;95744.56;5045272;28;20092;-71
2021/12/29 10:03:25;;;;;;;0.20;0.20;;;;;;;5.71;100.00;95735.66;5045245;28;20446;-71
2021/12/29 10:05:53;;;;;;;0.20;0.20;;;;;;;6.21;100.00;95732.38;5046122;28;20037;-71
2021/12/29 10:08:25;;;;;;;0.20;0.20;;;;;;;6.58;100.00;95730.13;5016817;28;20087;-71
2021/12/29 10:10:54;;;;;;;0.10;0.10;;;;;;;6.62;100.00;95725.13;5045696;28;20057;-71
2021/12/29 10:13:20;;;;;;;0.10;0.10;;;;;;;6.55;100.00;95740.44;5045052;28;20064;-71
2021/12/29 10:15:51;;;;;;;0.10;0.10;;;;;;;6.42;100.00;95733.56;5045180;28;20608;-71
2021/12/29 10:18:20;;;;;;;;;;;;;;;6.40;100.00;95733.00;5044712;28;20041;-70
2021/12/29 10:21:00;;;;;;;0.13;0.13;;;;;;;6.40;100.00;95728.50;5043902;28;19909;-71
2021/12/29 10:23:29;;;;;;;0.20;0.20;;;;;;;6.34;100.00;95736.63;5044192;28;20037;-71
2021/12/29 10:25:56;;;;;;;0.10;0.10;;;;;;;6.31;100.00;95732.59;5044362;28;20541;-71
2021/12/29 10:28:25;;;;;;;0.20;0.20;;;;;;;6.34;100.00;95725.97;5044815;28;20033;-71
2021/12/29 10:31:05;;;;;;;0.30;0.30;;;;;;;6.39;100.00;95726.09;5045031;28;20522;-70
2021/12/29 10:33:33;;;;;;;0.10;0.10;;;;;;;6.45;100.00;95726.97;5044890;28;20068;-71
2021/12/29 10:36:29;;;;;;;0.20;0.20;;;;;;;6.54;100.00;95725.53;5044200;28;20044;-71
2021/12/29 10:39:14;;;;;;;0.20;0.20;;;;;;;6.47;100.00;95731.00;5042860;28;20069;-71
2021/12/29 10:42:06;;;;;;;0.10;0.10;;;;;;;6.47;100.00;95724.88;5044868;28;20021;-72
2021/12/29 10:44:43;;;;;;;0.10;0.10;;;;;;;6.39;100.00;95729.53;5043809;28;20048;-71
2021/12/29 10:47:24;;;;;;;0.10;0.10;;;;;;;6.50;100.00;95730.50;5044908;28;20102;-73
2021/12/29 10:50:05;;;;;;;0.13;0.13;;;;;;;6.72;100.00;95709.34;5046772;28;20033;-71
2021/12/29 10:52:52;;;;;;;0.50;0.47;;;;;;;6.92;100.00;95724.78;5042635;28;20033;-72
2021/12/29 10:55:31;;;;;;;0.10;0.10;;;;;;;7.06;100.00;95725.28;5044711;28;20058;-71
2021/12/29 10:58:14;;;;;;;0.20;0.20;;;;;;;6.75;100.00;95716.81;5042050;28;20056;-71
2021/12/29 11:00:43;;;;;;;0.10;0.10;;;;;;;6.70;100.00;95725.53;5044805;28;20097;-72
2021/12/29 11:03:09;;;;;;;0.25;0.22;;;;;;;6.82;100.00;95716.66;5044300;28;20033;-70
2021/12/29 11:05:38;;;;;;;0.20;0.20;;;;;;;6.81;100.00;95710.53;5046256;28;20127;-71
2021/12/29 11:08:08;;;;;;;0.10;0.10;;;;;;;6.59;100.00;95715.78;5045150;28;20040;-71
2021/12/29 11:10:35;;;;;;;0.20;0.20;;;;;;;6.54;100.00;95722.88;5048636;28;20037;-71
2021/12/29 11:13:00;;;;;;;0.68;0.47;;;;;;;6.24;100.00;95726.63;5045862;28;20040;-71
2021/12/29 11:15:29;;;;;;;0.15;0.15;;;;;;;6.18;100.00;95730.22;5045238;28;20209;-71
2021/12/29 11:17:56;;;;;;;0.40;0.40;;;;;;;6.44;100.00;95731.47;5044017;28;20043;-72
2021/12/29 11:20:25;;;;;;;0.17;0.17;;;;;;;6.54;100.00;95730.84;5045733;28;20037;-71
2021/12/29 11:22:51;;;;;;;0.20;0.20;;;;;;;6.51;100.00;95732.13;5018680;28;20056;-71
2021/12/29 11:25:28;;;;;;;0.10;0.10;;;;;;;6.34;100.00;95740.06;5045615;28;20494;-71
2021/12/29 11:27:54;;;;;;;0.15;0.15;;;;;;;6.08;100.00;95743.31;5043064;28;20037;-71
2021/12/29 11:30:20;;;;;;;0.20;0.20;;;;;;;6.32;100.00;95722.78;5042531;28;20041;-71
2021/12/29 11:32:47;;;;;;;0.20;0.20;;;;;;;6.39;100.00;95723.44;5043532;28;20041;-71
2021/12/29 11:35:24;;;;;;;0.10;0.10;;;;;;;6.36;100.00;95724.69;5041972;28;20053;-71
2021/12/29 11:38:00;;;;;;;0.30;0.30;;;;;;;6.47;100.00;95727.53;5045560;28;20095;-71
2021/12/29 11:40:28;;;;;;;0.10;0.10;;;;;;;6.67;100.00;95720.69;5043353;28;20036;-71